Time;durP1;ratioP1;P1;durP2;ratioP2;P2;SDS_P1;SDS_P2;PMS_P1;PMS_P2;Temp;Humidity;BMP_temperature;BMP_pressure;BME280_temperature;BME280_humidity;BME280_pressure;Samples;Min_cycle;Max_cycle;Signal;HPM_P1;HPM_P2
2022/05/19 00:01:01;;;;;;;13.32;12.02;;;;;;;;;;5083837;28;20152;-65
2022/05/19 00:03:27;;;;;;;13.38;12.02;;;;;;;;;;5095778;28;20390;-65
2022/05/19 00:05:52;;;;;;;17.63;13.13;;;;;;;;;;5098325;28;20497;-66
2022/05/19 00:08:17;;;;;;;15.50;13.30;;;;;;;;;;5104104;28;20038;-66
2022/05/19 00:10:43;;;;;;;14.38;12.98;;;;;;;;;;5102240;28;20548;-65
2022/05/19 00:13:08;;;;;;;15.07;13.57;;;;;;;;;;5105309;28;20028;-66
2022/05/19 00:15:33;;;;;;;18.75;15.68;;;;;;;;;;5102360;28;20023;-66
2022/05/19 00:17:59;;;;;;;15.98;14.10;;;;;;;;;;5106173;28;20016;-66
2022/05/19 00:20:27;;;;;;;16.15;14.55;;;;;;;;;;5100583;28;20107;-66
2022/05/19 00:22:54;;;;;;;18.13;15.25;;;;;;;;;;5085351;28;20016;-68
2022/05/19 00:25:19;;;;;;;19.45;15.02;;;;;;;;;;5104726;28;20026;-66
2022/05/19 00:27:44;;;;;;;15.25;13.68;;;;;;;;;;5102278;28;20031;-64
2022/05/19 00:30:10;;;;;;;20.25;16.30;;;;;;;;;;5104588;28;20487;-66
2022/05/19 00:32:35;;;;;;;17.08;14.00;;;;;;;;;;5102260;28;20131;-65
2022/05/19 00:35:00;;;;;;;18.03;14.90;;;;;;;;;;5082608;28;20420;-65
2022/05/19 00:37:29;;;;;;;16.55;14.25;;;;;;;;;;5100259;28;20778;-66
2022/05/19 00:39:54;;;;;;;16.60;13.98;;;;;;;;;;5103690;28;20031;-64
2022/05/19 00:45:04;;;;;;;17.00;15.07;;;;;;;;;;5105107;28;20497;-65
2022/05/19 00:47:33;;;;;;;20.10;16.05;;;;;;;;;;5103739;28;20016;-65
2022/05/19 00:49:58;;;;;;;17.17;15.38;;;;;;;;;;5101058;28;20016;-66
2022/05/19 00:52:42;;;;;;;17.83;15.95;;;;;;;;;;5102162;28;20076;-66
2022/05/19 00:55:12;;;;;;;20.98;17.33;;;;;;;;;;5105295;28;20012;-65
2022/05/19 00:57:40;;;;;;;18.02;16.15;;;;;;;;;;5106998;28;20020;-65
2022/05/19 01:00:13;;;;;;;19.83;17.30;;;;;;;;;;5108312;28;20611;-65
2022/05/19 01:02:40;;;;;;;19.80;17.63;;;;;;;;;;5109672;28;20016;-66
2022/05/19 01:05:17;;;;;;;19.00;17.00;;;;;;;;;;5104373;28;20125;-66
2022/05/19 01:07:48;;;;;;;20.70;18.27;;;;;;;;;;5104358;28;20076;-65
2022/05/19 01:10:14;;;;;;;19.17;16.67;;;;;;;;;;5091486;28;20448;-65
2022/05/19 01:12:40;;;;;;;19.33;17.35;;;;;;;;;;5085869;28;20036;-66
2022/05/19 01:15:06;;;;;;;20.63;18.35;;;;;;;;;;5088452;28;20020;-66
2022/05/19 01:17:32;;;;;;;19.77;17.70;;;;;;;;;;5085173;28;20024;-65
2022/05/19 01:20:02;;;;;;;21.85;18.48;;;;;;;;;;5081657;28;20031;-66
2022/05/19 01:22:30;;;;;;;19.55;17.38;;;;;;;;;;5084741;28;20449;-65
2022/05/19 01:24:56;;;;;;;19.92;17.27;;;;;;;;;;5085455;28;20028;-65
2022/05/19 01:27:21;;;;;;;21.27;18.80;;;;;;;;;;5088150;28;20081;-66
2022/05/19 01:29:47;;;;;;;21.52;17.83;;;;;;;;;;5104668;28;20642;-65
2022/05/19 01:32:23;;;;;;;21.13;18.95;;;;;;;;;;5106367;28;20393;-65
2022/05/19 01:34:48;;;;;;;18.98;17.15;;;;;;;;;;5085626;28;20129;-66
2022/05/19 01:37:13;;;;;;;26.52;20.63;;;;;;;;;;5084999;28;20038;-65
2022/05/19 01:39:39;;;;;;;21.40;18.67;;;;;;;;;;5085677;28;20050;-65
2022/05/19 01:42:04;;;;;;;21.17;18.77;;;;;;;;;;5088110;28;20343;-65
2022/05/19 01:44:38;;;;;;;21.42;18.75;;;;;;;;;;5089266;28;20069;-64
2022/05/19 01:47:04;;;;;;;21.95;19.60;;;;;;;;;;5087185;28;20724;-64
2022/05/19 01:49:42;;;;;;;21.85;19.02;;;;;;;;;;5087632;28;20095;-65
2022/05/19 01:52:14;;;;;;;21.85;19.52;;;;;;;;;;5082606;28;20035;-68
2022/05/19 01:54:47;;;;;;;22.77;19.98;;;;;;;;;;5084852;28;20046;-65
2022/05/19 01:57:15;;;;;;;21.65;18.75;;;;;;;;;;5088353;28;20371;-66
2022/05/19 01:59:47;;;;;;;25.08;21.23;;;;;;;;;;5086617;28;20031;-65
2022/05/19 02:02:20;;;;;;;22.02;19.75;;;;;;;;;;5087157;28;20107;-65
2022/05/19 02:05:08;;;;;;;24.02;20.13;;;;;;;;;;5080852;28;20813;-64
2022/05/19 02:07:36;;;;;;;22.65;19.42;;;;;;;;;;5053613;28;20029;-65
2022/05/19 02:10:05;;;;;;;19.90;17.80;;;;;;;;;;5085221;28;20036;-65
2022/05/19 02:12:33;;;;;;;23.50;20.98;;;;;;;;;;5086148;28;20078;-66
2022/05/19 02:15:00;;;;;;;23.52;21.05;;;;;;;;;;5086427;28;20043;-65
2022/05/19 02:17:27;;;;;;;22.95;20.55;;;;;;;;;;5084962;28;20020;-67
2022/05/19 02:19:54;;;;;;;23.88;21.38;;;;;;;;;;5078966;28;20465;-65
2022/05/19 02:22:20;;;;;;;24.58;21.95;;;;;;;;;;5084253;28;20066;-66
2022/05/19 02:24:49;;;;;;;26.05;21.02;;;;;;;;;;5084028;28;20028;-66
2022/05/19 02:27:23;;;;;;;25.10;22.45;;;;;;;;;;5087231;28;20423;-65
2022/05/19 02:29:49;;;;;;;31.80;24.77;;;;;;;;;;5085109;28;20031;-67
2022/05/19 02:32:14;;;;;;;40.28;28.38;;;;;;;;;;5085173;28;20035;-68
2022/05/19 02:34:40;;;;;;;37.88;28.25;;;;;;;;;;5080845;28;20108;-66
2022/05/19 02:37:06;;;;;;;35.25;30.48;;;;;;;;;;5081231;28;20118;-66
2022/05/19 02:39:31;;;;;;;38.05;31.73;;;;;;;;;;5090415;28;20107;-67
2022/05/19 02:41:57;;;;;;;35.80;32.00;;;;;;;;;;5104910;28;20314;-67
2022/05/19 02:44:22;;;;;;;41.13;33.90;;;;;;;;;;5107300;28;20448;-68
2022/05/19 02:46:47;;;;;;;44.90;37.38;;;;;;;;;;5103760;28;20023;-67
2022/05/19 02:49:12;;;;;;;42.63;37.30;;;;;;;;;;5093376;28;20131;-66
2022/05/19 02:51:38;;;;;;;39.92;35.80;;;;;;;;;;5077895;28;20169;-67
2022/05/19 02:54:04;;;;;;;48.38;38.58;;;;;;;;;;5083931;28;20586;-67
2022/05/19 02:56:29;;;;;;;43.95;36.85;;;;;;;;;;5084483;28;20024;-67
2022/05/19 02:58:54;;;;;;;42.42;36.60;;;;;;;;;;5090587;28;20027;-66
2022/05/19 03:01:20;;;;;;;51.05;41.03;;;;;;;;;;5105921;28;20057;-66
2022/05/19 03:03:45;;;;;;;42.88;35.90;;;;;;;;;;5088494;28;20036;-66
2022/05/19 03:06:11;;;;;;;44.13;37.58;;;;;;;;;;5102498;28;20030;-66
2022/05/19 03:08:37;;;;;;;42.65;35.65;;;;;;;;;;5087390;28;20034;-66
2022/05/19 03:11:02;;;;;;;42.30;37.78;;;;;;;;;;5102960;28;20023;-66
2022/05/19 03:13:28;;;;;;;52.35;41.95;;;;;;;;;;5104952;28;20473;-66
2022/05/19 03:15:53;;;;;;;45.65;37.47;;;;;;;;;;5102977;28;20047;-67
2022/05/19 03:18:18;;;;;;;48.78;40.15;;;;;;;;;;5106792;28;20140;-67
2022/05/19 03:20:45;;;;;;;41.17;35.78;;;;;;;;;;5097969;28;20031;-67
2022/05/19 03:23:10;;;;;;;40.90;36.42;;;;;;;;;;5102707;28;20028;-66
2022/05/19 03:25:35;;;;;;;41.70;35.50;;;;;;;;;;5087752;28;20062;-66
2022/05/19 03:28:00;;;;;;;38.83;34.20;;;;;;;;;;5084218;28;20031;-66
2022/05/19 03:30:26;;;;;;;44.05;37.20;;;;;;;;;;5083425;28;20032;-66
2022/05/19 03:32:51;;;;;;;47.90;39.67;;;;;;;;;;5083378;28;20034;-66
2022/05/19 03:35:16;;;;;;;45.72;41.03;;;;;;;;;;5094826;28;20522;-66
2022/05/19 03:37:42;;;;;;;46.75;40.15;;;;;;;;;;5104256;28;20039;-66
2022/05/19 03:40:09;;;;;;;47.55;42.70;;;;;;;;;;5087062;28;20116;-66
2022/05/19 03:42:34;;;;;;;46.47;41.85;;;;;;;;;;5105599;27;20492;-67
2022/05/19 03:45:00;;;;;;;46.70;41.85;;;;;;;;;;5105115;28;20054;-67
2022/05/19 03:47:25;;;;;;;46.35;41.50;;;;;;;;;;5106092;28;20161;-67
2022/05/19 03:49:50;;;;;;;44.55;39.72;;;;;;;;;;5098197;28;20942;-68
2022/05/19 03:52:15;;;;;;;48.67;44.03;;;;;;;;;;5103473;28;20389;-68
2022/05/19 03:54:41;;;;;;;44.35;40.13;;;;;;;;;;5106124;28;20431;-67
2022/05/19 03:57:06;;;;;;;38.95;35.22;;;;;;;;;;5102708;28;20019;-68
2022/05/19 03:59:32;;;;;;;40.33;36.50;;;;;;;;;;5095086;28;20503;-68
2022/05/19 04:01:57;;;;;;;39.88;36.17;;;;;;;;;;5083566;28;20040;-67
2022/05/19 04:04:22;;;;;;;46.08;41.83;;;;;;;;;;5087173;28;20091;-67
2022/05/19 04:06:47;;;;;;;47.47;43.00;;;;;;;;;;5075799;28;20024;-67
2022/05/19 04:09:13;;;;;;;46.08;41.55;;;;;;;;;;5084064;28;20131;-68
2022/05/19 04:11:38;;;;;;;43.10;39.22;;;;;;;;;;5084225;28;20040;-67
2022/05/19 04:14:03;;;;;;;50.70;45.92;;;;;;;;;;5083980;28;20125;-67
2022/05/19 04:16:29;;;;;;;50.10;45.45;;;;;;;;;;5083432;28;20056;-67
2022/05/19 04:18:54;;;;;;;49.53;44.92;;;;;;;;;;5083223;28;20023;-68
2022/05/19 04:21:20;;;;;;;50.63;45.95;;;;;;;;;;5058661;28;20461;-67
2022/05/19 04:23:46;;;;;;;51.05;45.90;;;;;;;;;;5084327;28;20015;-67
2022/05/19 04:26:12;;;;;;;48.03;43.67;;;;;;;;;;5099767;28;20034;-68
2022/05/19 04:28:37;;;;;;;53.72;48.80;;;;;;;;;;5103143;28;20027;-67
2022/05/19 04:31:02;;;;;;;54.78;49.83;;;;;;;;;;5102892;28;20032;-67
2022/05/19 04:33:28;;;;;;;50.17;45.78;;;;;;;;;;5104669;28;20027;-68
2022/05/19 04:35:53;;;;;;;53.63;48.92;;;;;;;;;;5097722;28;21252;-67
2022/05/19 04:38:19;;;;;;;50.20;45.58;;;;;;;;;;5090019;28;20553;-66
2022/05/19 04:40:48;;;;;;;48.72;44.03;;;;;;;;;;5101925;28;20555;-67
2022/05/19 04:43:19;;;;;;;53.60;48.65;;;;;;;;;;5104454;28;20160;-68
2022/05/19 04:45:45;;;;;;;55.00;50.13;;;;;;;;;;5104687;28;20121;-66
2022/05/19 04:48:10;;;;;;;56.05;51.13;;;;;;;;;;5102961;28;20492;-67
2022/05/19 04:50:35;;;;;;;51.80;47.10;;;;;;;;;;5098860;28;20385;-66
2022/05/19 04:53:01;;;;;;;53.83;49.13;;;;;;;;;;5101626;28;20469;-67
2022/05/19 04:55:26;;;;;;;56.53;51.13;;;;;;;;;;5103543;28;20464;-67
2022/05/19 04:57:52;;;;;;;58.50;53.08;;;;;;;;;;5086812;28;20039;-66
2022/05/19 05:00:17;;;;;;;54.78;50.00;;;;;;;;;;5087012;28;20035;-67
2022/05/19 05:02:43;;;;;;;54.22;49.42;;;;;;;;;;5086374;28;20023;-66
2022/05/19 05:05:09;;;;;;;55.05;49.92;;;;;;;;;;5098808;28;20118;-67
2022/05/19 05:07:34;;;;;;;52.33;47.78;;;;;;;;;;5102068;28;20054;-66
2022/05/19 05:09:59;;;;;;;48.17;44.03;;;;;;;;;;5095449;28;20428;-65
2022/05/19 05:12:25;;;;;;;54.40;49.85;;;;;;;;;;5104657;28;20478;-66
2022/05/19 05:14:52;;;;;;;56.30;51.47;;;;;;;;;;5104859;28;20066;-67
2022/05/19 05:17:18;;;;;;;52.47;47.85;;;;;;;;;;5104026;28;20043;-66
2022/05/19 05:19:44;;;;;;;45.20;41.40;;;;;;;;;;5100195;28;20063;-66
2022/05/19 05:22:10;;;;;;;46.30;42.00;;;;;;;;;;5099945;28;20188;-68
2022/05/19 05:24:35;;;;;;;48.35;44.05;;;;;;;;;;5105369;28;20181;-66
2022/05/19 05:27:03;;;;;;;46.35;42.22;;;;;;;;;;5102623;28;20378;-67
2022/05/19 05:29:28;;;;;;;53.00;48.05;;;;;;;;;;5104993;28;20381;-67
2022/05/19 05:31:53;;;;;;;47.72;43.40;;;;;;;;;;5102581;28;20490;-66
2022/05/19 05:34:18;;;;;;;45.08;40.92;;;;;;;;;;5103582;28;20027;-66
2022/05/19 05:36:44;;;;;;;45.10;41.15;;;;;;;;;;5096961;28;20016;-66
2022/05/19 05:39:09;;;;;;;42.17;38.38;;;;;;;;;;5102637;28;20031;-66
2022/05/19 05:41:35;;;;;;;49.95;45.15;;;;;;;;;;5103025;28;20488;-67
2022/05/19 05:44:00;;;;;;;43.55;39.50;;;;;;;;;;5105157;28;20105;-66
2022/05/19 05:46:25;;;;;;;38.38;34.92;;;;;;;;;;5098103;28;20115;-67
2022/05/19 05:48:52;;;;;;;44.65;40.90;;;;;;;;;;5085860;28;20031;-66
2022/05/19 05:51:18;;;;;;;39.92;36.00;;;;;;;;;;5061433;28;20119;-67
2022/05/19 05:53:44;;;;;;;39.55;36.08;;;;;;;;;;5069749;28;20034;-67
2022/05/19 05:56:11;;;;;;;33.97;30.92;;;;;;;;;;5091743;28;20435;-66
2022/05/19 05:58:36;;;;;;;34.47;31.40;;;;;;;;;;5088565;28;20482;-68
2022/05/19 06:01:03;;;;;;;37.22;33.85;;;;;;;;;;5085674;28;20073;-67
2022/05/19 06:03:29;;;;;;;36.65;33.35;;;;;;;;;;5087741;28;20089;-66
2022/05/19 06:05:55;;;;;;;37.13;33.72;;;;;;;;;;5081203;28;20028;-66
2022/05/19 06:08:20;;;;;;;32.33;29.23;;;;;;;;;;5067521;28;20077;-67
2022/05/19 06:10:46;;;;;;;30.77;28.13;;;;;;;;;;5088127;28;20480;-66
2022/05/19 06:13:11;;;;;;;36.30;33.05;;;;;;;;;;5087097;28;20479;-69
2022/05/19 06:15:36;;;;;;;37.88;34.58;;;;;;;;;;5085920;28;20028;-66
2022/05/19 06:18:02;;;;;;;37.83;34.40;;;;;;;;;;5083385;28;20363;-66
2022/05/19 06:20:27;;;;;;;36.70;33.60;;;;;;;;;;5080037;28;20450;-66
2022/05/19 06:22:53;;;;;;;37.58;34.38;;;;;;;;;;5082079;28;20027;-66
2022/05/19 06:25:20;;;;;;;33.72;30.65;;;;;;;;;;5084179;28;20024;-66
2022/05/19 06:27:45;;;;;;;34.95;32.00;;;;;;;;;;5097008;28;20072;-67
2022/05/19 06:30:12;;;;;;;35.72;32.50;;;;;;;;;;5103733;27;20019;-67
2022/05/19 06:32:38;;;;;;;34.08;31.10;;;;;;;;;;5103806;28;20140;-66
2022/05/19 06:35:03;;;;;;;36.20;32.88;;;;;;;;;;5097138;28;20028;-66
2022/05/19 06:37:28;;;;;;;34.05;31.10;;;;;;;;;;5102473;28;20474;-66
2022/05/19 06:39:55;;;;;;;33.65;30.67;;;;;;;;;;5102228;28;20081;-65
2022/05/19 06:42:21;;;;;;;33.95;31.10;;;;;;;;;;5084111;28;20027;-66
2022/05/19 06:44:47;;;;;;;36.58;33.13;;;;;;;;;;5105223;28;20416;-66
2022/05/19 06:47:14;;;;;;;31.20;28.50;;;;;;;;;;5101541;28;20543;-65
2022/05/19 06:49:44;;;;;;;33.42;30.40;;;;;;;;;;5101524;28;20024;-66
2022/05/19 06:52:11;;;;;;;35.42;32.53;;;;;;;;;;5096488;28;20028;-66
2022/05/19 06:54:37;;;;;;;31.17;28.20;;;;;;;;;;5105113;28;20032;-66
2022/05/19 06:57:02;;;;;;;32.03;29.35;;;;;;;;;;5082887;28;20031;-66
2022/05/19 06:59:28;;;;;;;31.75;28.98;;;;;;;;;;5103684;28;20081;-66
2022/05/19 07:01:53;;;;;;;29.63;27.02;;;;;;;;;;5102346;28;20024;-65
2022/05/19 07:04:18;;;;;;;32.10;29.13;;;;;;;;;;5102529;28;20046;-65
2022/05/19 07:06:44;;;;;;;32.45;29.33;;;;;;;;;;5095247;28;20111;-66
2022/05/19 07:09:09;;;;;;;31.05;28.42;;;;;;;;;;5100777;28;20084;-66
2022/05/19 07:11:35;;;;;;;28.63;25.98;;;;;;;;;;5103185;28;20019;-65
2022/05/19 07:14:02;;;;;;;29.20;26.50;;;;;;;;;;5103579;28;20430;-67
2022/05/19 07:16:28;;;;;;;31.90;29.25;;;;;;;;;;5081879;28;20077;-66
2022/05/19 07:21:38;;;;;;;27.95;25.52;;;;;;;;;;5097901;28;20437;-66
2022/05/19 07:24:03;;;;;;;30.15;27.52;;;;;;;;;;5104197;28;20016;-66
2022/05/19 07:26:28;;;;;;;28.23;25.73;;;;;;;;;;5100652;28;20490;-66
2022/05/19 07:28:54;;;;;;;24.90;22.70;;;;;;;;;;5105029;28;20549;-66
2022/05/19 07:31:19;;;;;;;29.33;26.95;;;;;;;;;;5100399;28;20272;-66
2022/05/19 07:33:45;;;;;;;30.10;27.58;;;;;;;;;;5105832;28;20038;-65
2022/05/19 07:36:11;;;;;;;29.98;27.02;;;;;;;;;;5098395;28;20024;-65
2022/05/19 07:38:37;;;;;;;26.70;24.45;;;;;;;;;;5085399;28;20023;-66
2022/05/19 07:41:03;;;;;;;28.02;25.52;;;;;;;;;;5103527;28;20411;-66
2022/05/19 07:43:37;;;;;;;25.75;23.33;;;;;;;;;;5086332;28;20466;-66
2022/05/19 07:46:04;;;;;;;25.90;23.67;;;;;;;;;;5103158;28;20031;-66
2022/05/19 07:48:29;;;;;;;25.00;22.83;;;;;;;;;;5104607;28;20027;-66
2022/05/19 07:50:54;;;;;;;26.23;23.95;;;;;;;;;;5098135;28;20028;-65
2022/05/19 07:53:20;;;;;;;25.17;22.98;;;;;;;;;;5099921;28;20027;-66
2022/05/19 07:55:45;;;;;;;23.40;21.42;;;;;;;;;;5100607;28;20103;-66
2022/05/19 07:58:10;;;;;;;22.83;20.88;;;;;;;;;;5083465;28;20122;-66
2022/05/19 08:00:36;;;;;;;23.23;21.08;;;;;;;;;;5092163;28;20028;-65
2022/05/19 08:03:04;;;;;;;26.45;23.98;;;;;;;;;;5083714;28;20012;-65
2022/05/19 08:05:30;;;;;;;26.35;23.95;;;;;;;;;;5075181;28;20103;-66
2022/05/19 08:07:55;;;;;;;24.90;22.50;;;;;;;;;;5080469;28;20028;-66
2022/05/19 08:10:20;;;;;;;25.15;22.95;;;;;;;;;;5082023;28;20072;-65
2022/05/19 08:15:36;;;;;;;24.75;22.55;;;;;;;;;;5100733;28;20335;-65
2022/05/19 08:18:11;;;;;;;22.45;20.45;;;;;;;;;;5104709;28;20274;-66
2022/05/19 08:20:39;;;;;;;23.42;21.23;;;;;;;;;;5099211;28;20103;-66
2022/05/19 08:23:05;;;;;;;25.10;22.77;;;;;;;;;;5101934;28;20076;-65
2022/05/19 08:25:30;;;;;;;24.13;22.02;;;;;;;;;;5083798;28;20016;-65
2022/05/19 08:27:56;;;;;;;21.70;19.80;;;;;;;;;;5106125;28;20076;-66
2022/05/19 08:30:23;;;;;;;20.48;18.35;;;;;;;;;;5100921;28;20038;-67
2022/05/19 08:32:48;;;;;;;18.38;16.60;;;;;;;;;;5100118;28;20050;-66
2022/05/19 08:35:13;;;;;;;17.80;16.20;;;;;;;;;;5095019;28;20028;-65
2022/05/19 08:37:39;;;;;;;19.10;17.15;;;;;;;;;;5100071;28;20049;-66
2022/05/19 08:40:04;;;;;;;17.40;15.77;;;;;;;;;;5103551;28;20123;-66
2022/05/19 08:42:32;;;;;;;14.90;13.60;;;;;;;;;;5073685;28;20031;-66
2022/05/19 08:45:01;;;;;;;15.25;13.77;;;;;;;;;;5103597;28;20308;-66
2022/05/19 08:47:28;;;;;;;13.82;12.32;;;;;;;;;;5102761;28;20052;-65
2022/05/19 08:50:03;;;;;;;13.40;12.20;;;;;;;;;;5099471;28;20479;-65
2022/05/19 08:52:49;;;;;;;12.77;11.68;;;;;;;;;;5099927;28;20564;-66
2022/05/19 08:55:15;;;;;;;12.25;11.20;;;;;;;;;;5102234;28;20044;-66
2022/05/19 08:57:59;;;;;;;12.07;10.93;;;;;;;;;;5102422;28;20042;-66
2022/05/19 09:00:25;;;;;;;12.43;11.18;;;;;;;;;;5102869;28;20032;-66
2022/05/19 09:02:56;;;;;;;11.60;10.38;;;;;;;;;;5103725;28;20049;-67
2022/05/19 09:05:24;;;;;;;11.80;10.70;;;;;;;;;;5094670;28;20028;-65
2022/05/19 09:08:15;;;;;;;13.63;12.43;;;;;;;;;;5101337;28;20019;-66
2022/05/19 09:10:59;;;;;;;14.15;12.85;;;;;;;;;;5102097;28;20048;-65
2022/05/19 09:13:31;;;;;;;12.80;11.50;;;;;;;;;;5100994;28;20030;-66
2022/05/19 09:15:57;;;;;;;12.60;11.50;;;;;;;;;;5088346;28;20035;-66
2022/05/19 09:18:38;;;;;;;12.10;10.65;;;;;;;;;;5067246;28;20119;-66
2022/05/19 09:21:05;;;;;;;11.38;10.27;;;;;;;;;;5081528;28;20016;-67
2022/05/19 09:23:31;;;;;;;11.98;10.98;;;;;;;;;;5084087;28;20515;-66
2022/05/19 09:26:01;;;;;;;12.68;11.48;;;;;;;;;;5086423;28;20099;-67
2022/05/19 09:28:26;;;;;;;12.57;11.48;;;;;;;;;;5086101;28;20160;-65
2022/05/19 09:30:55;;;;;;;12.68;11.55;;;;;;;;;;5082891;28;20406;-65
2022/05/19 09:33:28;;;;;;;12.75;10.70;;;;;;;;;;5085416;28;20028;-66
2022/05/19 09:35:55;;;;;;;11.70;10.70;;;;;;;;;;5083393;28;20029;-67
2022/05/19 09:38:25;;;;;;;10.20;9.10;;;;;;;;;;5085729;28;20028;-67
2022/05/19 09:40:53;;;;;;;12.82;11.52;;;;;;;;;;5084022;28;20115;-66
2022/05/19 09:43:26;;;;;;;11.45;10.45;;;;;;;;;;5084238;28;20085;-66
2022/05/19 09:45:53;;;;;;;11.68;10.63;;;;;;;;;;5085518;28;20359;-66
2022/05/19 09:48:27;;;;;;;10.63;9.55;;;;;;;;;;5083662;28;20032;-66
2022/05/19 09:50:58;;;;;;;10.00;9.00;;;;;;;;;;5084863;28;20424;-66
2022/05/19 09:53:25;;;;;;;8.77;7.85;;;;;;;;;;5104827;28;20046;-65
2022/05/19 09:55:57;;;;;;;9.93;9.02;;;;;;;;;;5103555;28;20028;-65
2022/05/19 09:58:25;;;;;;;9.52;8.65;;;;;;;;;;5103973;28;20446;-65
2022/05/19 10:00:53;;;;;;;7.75;6.90;;;;;;;;;;5101602;28;20026;-65
2022/05/19 10:03:29;;;;;;;6.80;6.07;;;;;;;;;;5085691;28;20059;-66
2022/05/19 10:05:55;;;;;;;5.97;5.00;;;;;;;;;;5100264;28;20436;-66
2022/05/19 10:08:24;;;;;;;5.53;3.90;;;;;;;;;;5105127;28;20031;-66
2022/05/19 10:11:00;;;;;;;6.07;5.07;;;;;;;;;;5102687;27;20047;-65
2022/05/19 10:13:28;;;;;;;7.20;5.13;;;;;;;;;;5103950;28;20023;-66
2022/05/19 10:15:53;;;;;;;6.25;5.65;;;;;;;;;;5104551;28;20020;-65
2022/05/19 10:18:20;;;;;;;6.07;4.97;;;;;;;;;;5103797;28;20026;-65
2022/05/19 10:20:51;;;;;;;4.85;4.35;;;;;;;;;;5098432;28;20020;-65
2022/05/19 10:23:31;;;;;;;5.68;4.88;;;;;;;;;;5103698;28;20522;-65
2022/05/19 10:26:03;;;;;;;6.68;5.30;;;;;;;;;;5104979;28;20024;-67
2022/05/19 10:31:50;;;;;;;11.80;7.80;;;;;;;;;;5055775;28;20032;-66
2022/05/19 10:34:51;;;;;;;16.77;8.95;;;;;;;;;;5096991;27;20044;-66
2022/05/19 10:37:36;;;;;;;19.15;9.30;;;;;;;;;;5025217;28;20033;-67
2022/05/19 10:40:13;;;;;;;22.27;11.23;;;;;;;;;;5082486;28;20064;-67
2022/05/19 10:42:38;;;;;;;21.20;12.90;;;;;;;;;;5096138;28;20176;-67
2022/05/19 10:45:15;;;;;;;26.60;13.82;;;;;;;;;;5108703;28;20110;-67
2022/05/19 10:47:47;;;;;;;25.10;14.85;;;;;;;;;;5104790;28;20398;-68
2022/05/19 10:50:32;;;;;;;32.05;13.88;;;;;;;;;;5103648;28;20107;-65
2022/05/19 10:53:12;;;;;;;22.98;14.13;;;;;;;;;;5104123;28;20466;-67
2022/05/19 10:55:37;;;;;;;16.98;13.43;;;;;;;;;;5105015;28;20482;-66
2022/05/19 10:58:21;;;;;;;24.15;13.85;;;;;;;;;;5108426;28;20038;-67
2022/05/19 11:00:56;;;;;;;30.30;13.88;;;;;;;;;;5107102;28;20030;-68
2022/05/19 11:03:28;;;;;;;25.27;15.25;;;;;;;;;;5107657;28;20175;-68
2022/05/19 11:05:53;;;;;;;26.88;14.32;;;;;;;;;;5095772;28;20517;-66
2022/05/19 11:08:19;;;;;;;32.35;16.63;;;;;;;;;;5084441;28;20036;-67
2022/05/19 11:10:51;;;;;;;32.15;16.38;;;;;;;;;;5084565;28;20050;-67
2022/05/19 11:13:29;;;;;;;35.87;18.73;;;;;;;;;;5089923;28;20072;-67
2022/05/19 11:16:13;;;;;;;31.95;20.42;;;;;;;;;;5107049;28;20240;-67
2022/05/19 11:18:50;;;;;;;28.73;20.17;;;;;;;;;;5106396;28;20302;-67
2022/05/19 11:21:18;;;;;;;32.03;20.70;;;;;;;;;;5100621;28;20015;-66
2022/05/19 11:23:44;;;;;;;28.05;19.20;;;;;;;;;;5106299;28;20141;-67
2022/05/19 11:26:23;;;;;;;23.45;16.17;;;;;;;;;;5104830;28;20103;-68
2022/05/19 11:28:54;;;;;;;19.38;13.25;;;;;;;;;;5107920;27;20411;-67
2022/05/19 11:31:33;;;;;;;23.45;13.48;;;;;;;;;;5105341;28;20070;-66
2022/05/19 11:34:00;;;;;;;20.80;12.25;;;;;;;;;;5108376;28;20043;-67
2022/05/19 11:36:46;;;;;;;17.40;12.25;;;;;;;;;;5099599;28;20016;-65
2022/05/19 11:39:14;;;;;;;25.13;11.68;;;;;;;;;;5106534;28;20413;-67
2022/05/19 11:41:40;;;;;;;20.90;11.13;;;;;;;;;;5094467;28;20028;-66
2022/05/19 11:44:21;;;;;;;24.13;12.10;;;;;;;;;;5086995;28;20035;-67
2022/05/19 11:46:52;;;;;;;24.80;10.48;;;;;;;;;;5091469;28;20027;-67
2022/05/19 11:55:19;;;;;;;23.48;11.82;;;;;;;;;;5106774;28;20442;-68
2022/05/19 11:57:45;;;;;;;25.38;12.40;;;;;;;;;;5106075;28;20027;-68
2022/05/19 12:00:11;;;;;;;29.05;12.88;;;;;;;;;;5106153;28;20080;-68
2022/05/19 12:02:48;;;;;;;20.02;11.63;;;;;;;;;;5105829;28;20027;-66
2022/05/19 12:05:29;;;;;;;19.40;10.48;;;;;;;;;;5101385;28;20030;-67
2022/05/19 12:07:56;;;;;;;24.63;10.82;;;;;;;;;;5105456;28;20016;-67
2022/05/19 12:10:45;;;;;;;24.73;12.52;;;;;;;;;;5105308;28;20090;-66
2022/05/19 12:13:11;;;;;;;29.23;12.35;;;;;;;;;;5106628;28;20039;-68
2022/05/19 12:15:38;;;;;;;30.27;13.80;;;;;;;;;;5102451;28;20092;-68
2022/05/19 12:18:22;;;;;;;25.70;12.90;;;;;;;;;;5103196;28;20030;-68
2022/05/19 12:20:52;;;;;;;25.00;13.45;;;;;;;;;;5096446;28;20016;-67
2022/05/19 12:23:18;;;;;;;23.48;13.82;;;;;;;;;;5097848;28;20023;-67
2022/05/19 12:25:44;;;;;;;25.35;14.00;;;;;;;;;;5103230;28;20313;-68
2022/05/19 12:28:13;;;;;;;29.23;13.98;;;;;;;;;;5104124;28;20016;-68
2022/05/19 12:33:39;;;;;;;26.23;14.70;;;;;;;;;;5102857;28;20072;-67
2022/05/19 12:36:11;;;;;;;20.70;14.43;;;;;;;;;;5099401;28;20426;-67
2022/05/19 12:38:41;;;;;;;23.58;15.50;;;;;;;;;;5100300;28;20054;-67
2022/05/19 12:41:07;;;;;;;23.38;15.63;;;;;;;;;;5103301;28;20027;-67
2022/05/19 12:43:42;;;;;;;22.95;13.95;;;;;;;;;;5104831;28;20027;-68
2022/05/19 12:46:26;;;;;;;30.13;14.40;;;;;;;;;;5103798;28;20019;-66
2022/05/19 12:49:08;;;;;;;25.65;14.38;;;;;;;;;;5103649;28;20019;-68
2022/05/19 12:51:49;;;;;;;23.20;14.38;;;;;;;;;;5094095;28;20092;-68
2022/05/19 12:54:15;;;;;;;21.58;14.73;;;;;;;;;;5108571;28;20104;-68
2022/05/19 12:56:41;;;;;;;21.02;15.75;;;;;;;;;;5104131;28;20028;-68
2022/05/19 12:59:26;;;;;;;20.88;15.18;;;;;;;;;;5107869;28;20042;-67
2022/05/19 13:01:56;;;;;;;19.05;13.52;;;;;;;;;;5101895;28;20027;-68
2022/05/19 13:04:25;;;;;;;19.13;13.25;;;;;;;;;;5109100;28;20012;-68
2022/05/19 13:06:54;;;;;;;19.33;14.05;;;;;;;;;;5097249;28;20199;-68
2022/05/19 13:09:29;;;;;;;15.25;13.65;;;;;;;;;;5106152;28;20108;-68
2022/05/19 13:11:56;;;;;;;15.00;13.38;;;;;;;;;;5105290;28;20043;-67
2022/05/19 13:14:42;;;;;;;19.30;14.00;;;;;;;;;;5108264;28;20107;-67
2022/05/19 13:17:12;;;;;;;13.20;11.93;;;;;;;;;;5101573;28;20031;-67
2022/05/19 13:19:39;;;;;;;15.13;11.88;;;;;;;;;;5082405;28;20063;-66
2022/05/19 13:22:07;;;;;;;13.07;11.32;;;;;;;;;;5086966;28;20061;-67
2022/05/19 13:24:40;;;;;;;13.93;12.55;;;;;;;;;;5106466;28;20020;-67
2022/05/19 13:32:36;;;;;;;11.98;10.77;;;;;;;;;;5106162;28;20440;-64
2022/05/19 13:35:05;;;;;;;11.95;10.65;;;;;;;;;;5103629;28;20396;-65
2022/05/19 13:37:35;;;;;;;14.23;10.07;;;;;;;;;;5101409;28;20411;-67
2022/05/19 13:40:14;;;;;;;10.18;8.68;;;;;;;;;;5106732;28;20643;-68
2022/05/19 13:42:42;;;;;;;10.98;7.72;;;;;;;;;;5104873;28;20152;-67
2022/05/19 13:45:07;;;;;;;11.30;7.40;;;;;;;;;;5107610;28;20110;-66
2022/05/19 13:47:37;;;;;;;11.60;7.80;;;;;;;;;;5101724;28;20024;-67
2022/05/19 13:50:05;;;;;;;8.82;6.53;;;;;;;;;;5104978;28;20896;-67
2022/05/19 13:52:33;;;;;;;8.05;4.18;;;;;;;;;;5102679;28;20118;-66
2022/05/19 13:54:59;;;;;;;6.47;4.70;;;;;;;;;;5104078;28;20084;-67
2022/05/19 13:57:29;;;;;;;3.70;2.70;;;;;;;;;;5084613;28;20024;-66
2022/05/19 13:59:59;;;;;;;6.30;4.35;;;;;;;;;;5083259;28;20207;-67
2022/05/19 14:02:38;;;;;;;9.25;5.93;;;;;;;;;;5086405;28;20423;-66
2022/05/19 14:05:07;;;;;;;11.07;7.43;;;;;;;;;;5082681;28;20221;-66
2022/05/19 14:07:37;;;;;;;10.07;7.50;;;;;;;;;;5102531;28;20495;-65
2022/05/19 14:10:05;;;;;;;10.18;9.02;;;;;;;;;;5074457;28;20052;-67
2022/05/19 14:12:40;;;;;;;12.30;9.93;;;;;;;;;;5086968;28;20031;-65
2022/05/19 14:15:07;;;;;;;12.65;9.50;;;;;;;;;;5086831;28;20050;-66
2022/05/19 14:17:56;;;;;;;11.63;9.60;;;;;;;;;;5085951;28;20081;-67
2022/05/19 14:20:30;;;;;;;13.30;9.93;;;;;;;;;;5077156;28;20067;-66
2022/05/19 14:22:57;;;;;;;15.65;10.25;;;;;;;;;;5083232;28;20028;-66
2022/05/19 14:25:23;;;;;;;14.82;9.95;;;;;;;;;;5085576;28;20042;-67
2022/05/19 14:27:53;;;;;;;11.80;9.20;;;;;;;;;;5084406;28;20039;-66
2022/05/19 14:30:19;;;;;;;10.85;8.32;;;;;;;;;;5085148;28;20016;-66
2022/05/19 14:32:50;;;;;;;12.43;8.60;;;;;;;;;;5084670;28;20074;-67
2022/05/19 14:35:20;;;;;;;15.32;8.45;;;;;;;;;;5084359;28;20020;-67
2022/05/19 14:37:48;;;;;;;11.63;8.43;;;;;;;;;;5083832;28;20070;-66
2022/05/19 14:43:06;;;;;;;14.25;8.77;;;;;;;;;;5106896;28;20390;-66
2022/05/19 14:45:42;;;;;;;16.00;10.80;;;;;;;;;;5107258;28;20023;-65
2022/05/19 14:48:10;;;;;;;16.30;10.35;;;;;;;;;;5108460;28;20069;-66
2022/05/19 14:50:36;;;;;;;17.98;10.30;;;;;;;;;;5102982;28;20024;-66
2022/05/19 14:53:08;;;;;;;18.65;11.48;;;;;;;;;;5100502;28;20029;-66
2022/05/19 14:55:35;;;;;;;21.25;12.43;;;;;;;;;;5106411;28;20016;-68